Time,TemperatureF,DewpointF,PressureIn,WindDirection,WindDirectionDegrees,WindSpeedMPH,WindSpeedGustMPH,Humidity,HourlyPrecipIn,Conditions,Clouds,dailyrainin,SoftwareType,DateUTC
2013-03-11 00:02:00,14.9,9.0,29.59,North,-999,4.8,-999.0,77,-99.99,,,-99.99,Acu-Link.com,2013-03-11 06:02:00,
2013-03-11 00:17:00,15.8,9.9,29.58,North,-999,1.6,-999.0,77,-99.99,,,-99.99,Acu-Link.com,2013-03-11 06:17:00,
2013-03-11 00:32:00,17.1,10.6,29.57,North,-999,3.2,-999.0,75,-99.99,,,-99.99,Acu-Link.com,2013-03-11 06:32:00,
2013-03-11 00:48:00,17.5,10.0,29.57,North,-999,3.2,-999.0,72,-99.99,,,-99.99,Acu-Link.com,2013-03-11 06:48:00,
2013-03-11 01:03:00,17.5,9.7,29.57,North,-999,6.4,-999.0,71,-99.99,,,-99.99,Acu-Link.com,2013-03-11 07:03:00,
2013-03-11 01:18:00,17.4,9.6,29.56,North,-999,4.8,-999.0,71,-99.99,,,-99.99,Acu-Link.com,2013-03-11 07:18:00,
2013-03-11 01:33:00,17.7,9.9,29.56,North,-999,3.2,-999.0,71,-99.99,,,-99.99,Acu-Link.com,2013-03-11 07:33:00,
2013-03-11 01:49:00,17.6,10.4,29.55,North,-999,6.4,-999.0,73,-99.99,,,-99.99,Acu-Link.com,2013-03-11 07:49:00,
2013-03-11 02:04:00,17.3,11.6,29.55,North,-999,4.8,-999.0,78,-99.99,,,-99.99,Acu-Link.com,2013-03-11 08:04:00,
2013-03-11 02:19:00,17.3,11.9,29.55,North,-999,4.8,-999.0,79,-99.99,,,-99.99,Acu-Link.com,2013-03-11 08:19:00,
2013-03-11 02:34:00,17.3,13.0,29.55,North,-999,8.0,-999.0,83,-99.99,,,-99.99,Acu-Link.com,2013-03-11 08:34:00,
2013-03-11 02:49:00,17.3,13.3,29.55,North,-999,3.2,-999.0,84,-99.99,,,-99.99,Acu-Link.com,2013-03-11 08:49:00,
2013-03-11 03:04:00,17.3,13.3,29.54,North,-999,8.0,-999.0,84,-99.99,,,-99.99,Acu-Link.com,2013-03-11 09:04:00,
2013-03-11 03:20:00,17.6,13.3,29.55,North,-999,6.4,-999.0,83,-99.99,,,-99.99,Acu-Link.com,2013-03-11 09:20:00,
2013-03-11 03:35:00,17.4,12.9,29.54,North,-999,1.6,-999.0,82,-99.99,,,-99.99,Acu-Link.com,2013-03-11 09:35:00,
2013-03-11 03:50:00,17.3,12.8,29.53,North,-999,3.2,-999.0,82,-99.99,,,-99.99,Acu-Link.com,2013-03-11 09:50:00,
2013-03-11 04:05:00,17.2,12.4,29.53,North,-999,1.6,-999.0,81,-99.99,,,-99.99,Acu-Link.com,2013-03-11 10:05:00,
2013-03-11 04:51:00,16.9,12.4,29.54,North,-999,9.6,-999.0,82,-99.99,,,-99.99,Acu-Link.com,2013-03-11 10:51:00,
2013-03-11 05:06:00,17.1,12.3,29.54,North,-999,3.2,-999.0,81,-99.99,,,-99.99,Acu-Link.com,2013-03-11 11:06:00,
2013-03-11 05:22:00,16.5,10.9,29.54,North,-999,3.2,-999.0,78,-99.99,,,-99.99,Acu-Link.com,2013-03-11 11:22:00,
2013-03-11 05:37:00,15.4,9.8,29.54,North,-999,1.6,-999.0,78,-99.99,,,-99.99,Acu-Link.com,2013-03-11 11:37:00,
2013-03-11 05:52:00,15.4,10.1,29.54,North,-999,1.6,-999.0,79,-99.99,,,-99.99,Acu-Link.com,2013-03-11 11:52:00,
2013-03-11 06:07:00,15.4,10.1,29.54,North,-999,3.2,-999.0,79,-99.99,,,-99.99,Acu-Link.com,2013-03-11 12:07:00,
2013-03-11 06:38:00,16.0,10.4,29.54,North,-999,1.6,-999.0,78,-99.99,,,-99.99,Acu-Link.com,2013-03-11 12:38:00,
2013-03-11 06:53:00,16.0,10.9,29.55,North,-999,1.6,-999.0,80,-99.99,,,-99.99,Acu-Link.com,2013-03-11 12:53:00,
2013-03-11 07:08:00,15.9,10.6,29.55,North,-999,1.6,-999.0,79,-99.99,,,-99.99,Acu-Link.com,2013-03-11 13:08:00,
2013-03-11 07:24:00,15.6,10.6,29.54,North,-999,1.6,-999.0,80,-99.99,,,-99.99,Acu-Link.com,2013-03-11 13:24:00,
2013-03-11 07:39:00,15.6,10.8,29.54,North,-999,1.6,-999.0,81,-99.99,,,-99.99,Acu-Link.com,2013-03-11 13:39:00,
2013-03-11 07:54:00,16.3,10.7,29.55,North,-999,3.2,-999.0,78,-99.99,,,-99.99,Acu-Link.com,2013-03-11 13:54:00,
2013-03-11 08:09:00,17.1,11.7,29.55,North,-999,1.6,-999.0,79,-99.99,,,-99.99,Acu-Link.com,2013-03-11 14:09:00,
2013-03-11 08:24:00,17.6,12.2,29.54,North,-999,3.2,-999.0,79,-99.99,,,-99.99,Acu-Link.com,2013-03-11 14:24:00,
2013-03-11 08:40:00,18.7,13.6,29.54,North,-999,1.6,-999.0,80,-99.99,,,-99.99,Acu-Link.com,2013-03-11 14:40:00,
2013-03-11 08:55:00,19.7,14.0,29.54,North,-999,1.6,-999.0,78,-99.99,,,-99.99,Acu-Link.com,2013-03-11 14:55:00,
2013-03-11 09:10:00,18.5,13.4,29.55,North,-999,1.6,-999.0,80,-99.99,,,-99.99,Acu-Link.com,2013-03-11 15:10:00,
2013-03-11 09:26:00,19.0,14.4,29.55,North,-999,3.2,-999.0,82,-99.99,,,-99.99,Acu-Link.com,2013-03-11 15:26:00,
2013-03-11 09:41:00,19.7,15.4,29.55,North,-999,1.6,-999.0,83,-99.99,,,-99.99,Acu-Link.com,2013-03-11 15:41:00,
2013-03-11 10:42:00,20.2,15.6,29.55,North,-999,1.6,-999.0,82,-99.99,,,-99.99,Acu-Link.com,2013-03-11 16:42:00,
2013-03-11 10:57:00,20.5,16.4,29.54,North,-999,3.2,-999.0,84,-99.99,,,-99.99,Acu-Link.com,2013-03-11 16:57:00,
2013-03-11 11:12:00,20.9,17.1,29.53,North,-999,0.0,-999.0,85,-99.99,,,-99.99,Acu-Link.com,2013-03-11 17:12:00,
2013-03-11 11:42:00,21.3,17.8,29.53,North,-999,1.6,-999.0,86,-99.99,,,-99.99,Acu-Link.com,2013-03-11 17:42:00,
2013-03-11 11:58:00,21.2,17.4,29.52,North,-999,1.6,-999.0,85,-99.99,,,-99.99,Acu-Link.com,2013-03-11 17:58:00,
2013-03-11 12:13:00,21.3,17.8,29.52,North,-999,1.6,-999.0,86,-99.99,,,-99.99,Acu-Link.com,2013-03-11 18:13:00,
2013-03-11 12:28:00,21.5,18.0,29.52,North,-999,3.2,-999.0,86,-99.99,,,-99.99,Acu-Link.com,2013-03-11 18:28:00,
2013-03-11 12:44:00,21.6,18.1,29.51,North,-999,0.0,-999.0,86,-99.99,,,-99.99,Acu-Link.com,2013-03-11 18:44:00,
2013-03-11 13:14:00,21.9,18.4,29.50,North,-999,6.4,-999.0,86,-99.99,,,-99.99,Acu-Link.com,2013-03-11 19:14:00,
2013-03-11 13:29:00,22.7,19.4,29.48,North,-999,4.8,-999.0,87,-99.99,,,-99.99,Acu-Link.com,2013-03-11 19:29:00,
2013-03-11 13:44:00,22.7,19.4,29.47,North,-999,6.4,-999.0,87,-99.99,,,-99.99,Acu-Link.com,2013-03-11 19:44:00,
2013-03-11 14:00:00,22.4,19.1,29.47,North,-999,0.0,-999.0,87,-99.99,,,-99.99,Acu-Link.com,2013-03-11 20:00:00,
2013-03-11 14:15:00,22.5,19.5,29.46,North,-999,4.8,-999.0,88,-99.99,,,-99.99,Acu-Link.com,2013-03-11 20:15:00,
2013-03-11 14:30:00,22.9,19.9,29.45,North,-999,8.0,-999.0,88,-99.99,,,-99.99,Acu-Link.com,2013-03-11 20:30:00,
2013-03-11 14:46:00,23.3,20.3,29.45,North,-999,6.4,-999.0,88,-99.99,,,-99.99,Acu-Link.com,2013-03-11 20:46:00,
2013-03-11 15:01:00,23.7,20.4,29.45,North,-999,4.8,-999.0,87,-99.99,,,-99.99,Acu-Link.com,2013-03-11 21:01:00,
2013-03-11 15:17:00,25.2,21.6,29.45,North,-999,11.2,-999.0,86,-99.99,,,-99.99,Acu-Link.com,2013-03-11 21:17:00,
2013-03-11 15:32:00,23.8,20.2,29.46,North,-999,6.4,-999.0,86,-99.99,,,-99.99,Acu-Link.com,2013-03-11 21:32:00,
2013-03-11 15:47:00,23.1,19.8,29.46,North,-999,8.0,-999.0,87,-99.99,,,-99.99,Acu-Link.com,2013-03-11 21:47:00,
2013-03-11 16:02:00,22.5,19.5,29.46,North,-999,8.0,-999.0,88,-99.99,,,-99.99,Acu-Link.com,2013-03-11 22:02:00,
2013-03-11 16:17:00,22.6,19.9,29.47,North,-999,6.4,-999.0,89,-99.99,,,-99.99,Acu-Link.com,2013-03-11 22:17:00,
2013-03-11 16:33:00,22.6,19.9,29.46,North,-999,6.4,-999.0,89,-99.99,,,-99.99,Acu-Link.com,2013-03-11 22:33:00,
2013-03-11 16:49:00,22.3,19.8,29.47,North,-999,4.8,-999.0,90,-99.99,,,-99.99,Acu-Link.com,2013-03-11 22:49:00,
2013-03-11 17:04:00,22.3,19.8,29.47,North,-999,8.0,-999.0,90,-99.99,,,-99.99,Acu-Link.com,2013-03-11 23:04:00,
2013-03-11 17:19:00,22.1,19.6,29.47,North,-999,3.2,-999.0,90,-99.99,,,-99.99,Acu-Link.com,2013-03-11 23:19:00,
2013-03-11 17:34:00,22.5,20.0,29.47,North,-999,9.6,-999.0,90,-99.99,,,-99.99,Acu-Link.com,2013-03-11 23:34:00,
2013-03-11 17:49:00,22.4,19.9,29.47,North,-999,8.0,-999.0,90,-99.99,,,-99.99,Acu-Link.com,2013-03-11 23:49:00,
2013-03-11 18:05:00,22.6,20.1,29.48,North,-999,8.0,-999.0,90,-99.99,,,-99.99,Acu-Link.com,2013-03-12 00:05:00,
2013-03-11 18:21:00,22.4,19.9,29.48,North,-999,9.6,-999.0,90,-99.99,,,-99.99,Acu-Link.com,2013-03-12 00:21:00,
2013-03-11 18:51:00,22.1,19.6,29.49,North,-999,6.4,-999.0,90,-99.99,,,-99.99,Acu-Link.com,2013-03-12 00:51:00,
2013-03-11 19:07:00,21.8,19.3,29.50,North,-999,12.8,-999.0,90,-99.99,,,-99.99,Acu-Link.com,2013-03-12 01:07:00,
2013-03-11 19:22:00,21.6,19.1,29.50,North,-999,1.6,-999.0,90,-99.99,,,-99.99,Acu-Link.com,2013-03-12 01:22:00,
2013-03-11 19:53:00,20.9,18.4,29.53,North,-999,3.2,-999.0,90,-99.99,,,-99.99,Acu-Link.com,2013-03-12 01:53:00,
2013-03-11 20:08:00,20.6,18.1,29.53,North,-999,1.6,-999.0,90,-99.99,,,-99.99,Acu-Link.com,2013-03-12 02:08:00,
2013-03-11 20:23:00,20.4,17.9,29.53,North,-999,1.6,-999.0,90,-99.99,,,-99.99,Acu-Link.com,2013-03-12 02:23:00,
2013-03-11 20:39:00,20.3,17.8,29.54,North,-999,3.2,-999.0,90,-99.99,,,-99.99,Acu-Link.com,2013-03-12 02:39:00,
2013-03-11 20:54:00,20.1,17.4,29.54,North,-999,6.4,-999.0,89,-99.99,,,-99.99,Acu-Link.com,2013-03-12 02:54:00,
2013-03-11 21:10:00,20.1,17.4,29.54,North,-999,8.0,-999.0,89,-99.99,,,-99.99,Acu-Link.com,2013-03-12 03:10:00,
2013-03-11 21:25:00,20.1,17.4,29.55,North,-999,3.2,-999.0,89,-99.99,,,-99.99,Acu-Link.com,2013-03-12 03:25:00,
2013-03-11 21:40:00,20.0,17.3,29.55,North,-999,1.6,-999.0,89,-99.99,,,-99.99,Acu-Link.com,2013-03-12 03:40:00,
2013-03-11 21:55:00,19.8,17.1,29.56,North,-999,3.2,-999.0,89,-99.99,,,-99.99,Acu-Link.com,2013-03-12 03:55:00,
2013-03-11 22:10:00,19.4,16.7,29.57,North,-999,6.4,-999.0,89,-99.99,,,-99.99,Acu-Link.com,2013-03-12 04:10:00,
2013-03-11 22:26:00,18.9,16.2,29.58,North,-999,0.0,-999.0,89,-99.99,,,-99.99,Acu-Link.com,2013-03-12 04:26:00,
2013-03-11 22:56:00,18.4,15.7,29.59,North,-999,4.8,-999.0,89,-99.99,,,-99.99,Acu-Link.com,2013-03-12 04:56:00,
2013-03-11 23:11:00,18.3,15.6,29.59,North,-999,8.0,-999.0,89,-99.99,,,-99.99,Acu-Link.com,2013-03-12 05:11:00,
2013-03-11 23:26:00,18.1,15.2,29.59,North,-999,0.0,-999.0,88,-99.99,,,-99.99,Acu-Link.com,2013-03-12 05:26:00,
2013-03-11 23:42:00,17.9,15.0,29.59,North,-999,1.6,-999.0,88,-99.99,,,-99.99,Acu-Link.com,2013-03-12 05:42:00,
2013-03-11 23:57:00,17.9,15.0,29.60,North,-999,6.4,-999.0,88,-99.99,,,-99.99,Acu-Link.com,2013-03-12 05:57:00,